CheckWX is a tool to help pilots better visualize weather data.  It is not intended as a substitute for an official pre-flight weather briefing.

19:13:46 UTC

EKCH TAF
Copenhagen Kastrup Airport
Copenhagen, Denmark
TAF EKCH 092311Z 1000/1024 20008KT 9999 SCT030 BECMG 1000/1003 28005KT BECMG 1008/1010 18005KT TEMPO 1012/1018 -RA BKN012

Jul-10@
00:00 UTC

Jul-10 @ 00:00 UTC

Jul-11@
00:00 UTC

Jul-11 @ 00:00 UTC

TAF EKCH 092311Z 1000/1024 20008KT 9999 SCT030
Wind
  • 200° at 8 KTS
Cloud Levels
  • Scattered at 3,000' AGL

Jul-10@
00:00 UTC

Jul-10 @ 00:00 UTC

Jul-10@
08:00 UTC

Jul-10 @ 08:00 UTC

BECMG 1000/1003 28005KT

Expired

Wind
  • 280° at 5 KTS
Cloud Levels
  • Scattered at 3,000' AGL

Jul-10@
08:00 UTC

Jul-10 @ 08:00 UTC

Jul-11@
00:00 UTC

Jul-11 @ 00:00 UTC

BECMG 1008/1010 18005KT

Becoming

Becoming Conditions expected by Fri, Jul 10, 2020 @ 10:00 UTC

Wind
  • 180° at 5 KTS
Cloud Levels
  • Scattered at 3,000' AGL

Jul-10@
12:00 UTC

Jul-10 @ 12:00 UTC

Jul-10@
18:00 UTC

Jul-10 @ 18:00 UTC

TEMPO 1012/1018 -RA BKN012

Expired

Conditions
Light Rain
Cloud Levels
  • Broken at 1,200' AGL